Terminal Aerodrome Forecast
Issued by NWS

Home | Current Version | Previous Version | Text Only | Print | Product List | Glossary Off
Versions: 1 2 3 4 5 6 7 8 9 10 11 12 13 14 15 16 17 18 19 20 21 22

000
FTUS43 KBIS 160536
TAFMOT
TAF
KMOT 160536Z 1606/1706 29010KT P6SM -SHRA SCT020 BKN035 OVC060
     FM160800 29010KT P6SM BKN020 OVC045
     FM161300 29012KT P6SM OVC015
     FM161600 29011KT P6SM BKN020
     FM161800 30011KT P6SM SCT040
     FM162000 29010KT P6SM SCT250=

USA.gov is the U.S. government's official web portal to all federal, state and local government web resources and services.